Time;durP1;ratioP1;P1;durP2;ratioP2;P2;SDS_P1;SDS_P2;PMS_P1;PMS_P2;Temp;Humidity;BMP_temperature;BMP_pressure;BME280_temperature;BME280_humidity;BME280_pressure;Samples;Min_cycle;Max_cycle;Signal;HPM_P1;HPM_P2
2022/10/18 00:01:38;;;;;;;12.48;6.50;;;15.10;99.90;;;14.16;100.00;98243.44;5033889;28;20498;-70
2022/10/18 00:04:04;;;;;;;14.60;6.40;;;15.00;99.90;;;14.16;100.00;98247.97;5033686;28;21119;-70
2022/10/18 00:06:31;;;;;;;15.23;6.20;;;15.00;99.90;;;14.16;100.00;98254.09;5033572;28;20460;-70
2022/10/18 00:08:57;;;;;;;12.45;5.78;;;15.00;99.90;;;14.14;100.00;98256.19;5033920;28;20892;-70
2022/10/18 00:11:23;;;;;;;15.20;5.67;;;15.00;99.90;;;14.13;100.00;98251.16;5034011;28;20494;-69
2022/10/18 00:13:49;;;;;;;13.85;5.40;;;14.90;99.90;;;14.14;100.00;98252.75;5033537;28;20903;-69
2022/10/18 00:16:17;;;;;;;22.63;6.20;;;14.90;99.90;;;14.14;100.00;98263.38;5033946;28;20438;-70
2022/10/18 00:18:43;;;;;;;19.05;5.90;;;14.90;99.90;;;14.17;100.00;98257.56;5014231;28;20408;-70
2022/10/18 00:21:13;;;;;;;15.40;5.95;;;15.00;99.90;;;14.19;100.00;98258.13;5013929;28;20421;-70
2022/10/18 00:23:41;;;;;;;27.17;5.72;;;15.00;99.90;;;14.21;100.00;98263.97;5032550;28;20775;-70
2022/10/18 00:26:10;;;;;;;15.95;5.75;;;15.00;99.90;;;14.21;100.00;98254.13;5033750;28;20414;-70
2022/10/18 00:28:37;;;;;;;29.70;6.57;;;15.00;99.90;;;14.18;100.00;98262.66;5033744;28;20403;-70
2022/10/18 00:31:13;;;;;;;14.93;5.18;;;15.00;99.90;;;14.20;100.00;98251.75;5033670;28;20450;-70
2022/10/18 00:33:40;;;;;;;11.40;5.45;;;15.00;99.90;;;14.22;100.00;98252.28;5032996;28;20399;-70
2022/10/18 00:36:06;;;;;;;18.92;5.95;;;15.00;99.90;;;14.24;100.00;98253.66;5033544;28;20407;-70
2022/10/18 00:38:32;;;;;;;19.43;5.30;;;15.00;99.90;;;14.24;100.00;98253.66;5033464;28;20891;-70
2022/10/18 00:41:00;;;;;;;17.52;5.50;;;15.00;99.90;;;14.21;100.00;98248.00;5033279;28;20419;-70
2022/10/18 00:43:26;;;;;;;13.20;5.03;;;15.00;99.90;;;14.22;100.00;98255.75;5032768;28;20407;-70
2022/10/18 00:45:52;;;;;;;17.40;5.47;;;15.00;99.90;;;14.25;100.00;98249.94;5033309;28;20434;-70
2022/10/18 00:48:19;;;;;;;42.47;6.47;;;15.00;99.90;;;14.23;100.00;98252.03;5033008;28;20789;-69
2022/10/18 00:50:47;;;;;;;32.47;7.13;;;15.00;99.90;;;14.20;100.00;98244.56;5029828;28;20848;-69
2022/10/18 00:53:19;;;;;;;16.85;5.28;;;15.00;99.90;;;14.23;100.00;98248.56;5032756;28;20793;-70
2022/10/18 00:55:45;;;;;;;17.33;5.00;;;15.00;99.90;;;14.22;100.00;98255.75;5033193;28;20399;-70
2022/10/18 00:58:16;;;;;;;23.95;5.60;;;15.00;99.90;;;14.26;100.00;98258.72;5033184;28;20908;-70
2022/10/18 01:00:42;;;;;;;13.82;5.38;;;15.00;99.90;;;14.23;100.00;98259.22;5033224;28;20465;-70
2022/10/18 01:03:08;;;;;;;12.85;4.90;;;15.00;99.90;;;14.29;100.00;98256.34;5032714;28;20414;-70
2022/10/18 01:05:43;;;;;;;10.63;4.93;;;15.10;99.90;;;14.31;100.00;98248.91;5032814;28;20446;-70
2022/10/18 01:08:31;;;;;;;11.13;4.70;;;15.10;99.90;;;14.31;100.00;98256.91;5031558;28;20507;-69
2022/10/18 01:11:19;;;;;;;10.95;4.80;;;15.10;99.90;;;14.44;100.00;98253.03;5032944;28;20418;-70
2022/10/18 01:14:06;;;;;;;7.57;3.95;;;15.20;99.90;;;14.48;100.00;98248.00;5032532;28;20407;-70
2022/10/18 01:16:46;;;;;;;14.80;4.70;;;15.30;99.90;;;14.57;100.00;98247.28;5032850;28;20407;-69
2022/10/18 01:19:41;;;;;;;12.88;4.35;;;15.30;99.90;;;14.65;100.00;98238.03;5032902;28;20403;-70
2022/10/18 01:22:14;;;;;;;11.57;4.07;;;15.40;99.90;;;14.72;100.00;98238.59;5032458;28;20415;-70
2022/10/18 01:24:59;;;;;;;9.43;4.05;;;15.50;99.90;;;14.72;100.00;98233.28;5032216;28;20407;-70
2022/10/18 01:27:51;;;;;;;13.50;4.10;;;15.50;99.90;;;14.90;100.00;98232.84;5032644;28;20395;-70
2022/10/18 01:30:39;;;;;;;13.82;3.55;;;15.60;99.90;;;14.86;100.00;98239.75;5032652;28;20442;-70
2022/10/18 01:33:15;;;;;;;11.82;3.90;;;15.60;99.90;;;14.84;100.00;98238.41;5032111;28;20667;-70
2022/10/18 01:35:48;;;;;;;8.20;3.83;;;15.60;99.90;;;14.87;100.00;98246.69;5031225;28;20738;-70
2022/10/18 01:38:18;;;;;;;8.57;3.60;;;15.60;99.90;;;14.83;100.00;98236.78;5032529;28;20457;-70
2022/10/18 01:40:48;;;;;;;8.73;3.90;;;15.60;99.90;;;14.86;100.00;98246.94;5032386;28;20425;-70
2022/10/18 01:43:17;;;;;;;10.88;3.55;;;15.60;99.90;;;14.85;100.00;98238.16;5032019;28;20379;-70
2022/10/18 01:45:45;;;;;;;14.93;3.77;;;15.60;99.90;;;14.92;100.00;98240.59;5031084;28;20761;-70
2022/10/18 01:48:12;;;;;;;11.18;3.42;;;15.60;99.90;;;14.88;100.00;98242.16;5032251;28;20431;-70
2022/10/18 01:50:38;;;;;;;11.90;3.80;;;15.70;99.90;;;14.93;100.00;98243.00;5032359;28;20799;-70
2022/10/18 01:53:04;;;;;;;17.83;3.92;;;15.60;99.90;;;14.97;100.00;98235.28;5031829;28;20506;-70
2022/10/18 01:55:39;;;;;;;13.88;3.80;;;15.70;99.90;;;14.97;100.00;98236.06;5032030;28;20403;-70
2022/10/18 01:58:16;;;;;;;10.00;3.67;;;15.70;99.90;;;15.00;100.00;98232.91;5032246;28;20705;-70
2022/10/18 02:00:48;;;;;;;7.75;3.28;;;15.70;99.90;;;14.98;100.00;98234.22;5032097;28;20445;-70
2022/10/18 02:03:20;;;;;;;11.80;3.80;;;15.70;99.90;;;15.04;100.00;98233.97;5030345;28;20750;-70
2022/10/18 02:05:53;;;;;;;8.45;3.55;;;15.70;99.90;;;14.97;100.00;98227.28;5031973;28;20888;-70
2022/10/18 02:08:27;;;;;;;9.18;3.33;;;15.70;99.90;;;15.16;100.00;98244.47;5031915;28;20406;-70
2022/10/18 02:10:59;;;;;;;12.15;3.83;;;15.80;99.90;;;15.07;100.00;98238.81;5031917;28;20396;-70
2022/10/18 02:13:32;;;;;;;7.30;3.30;;;15.80;99.90;;;15.06;100.00;98237.19;5031501;28;20426;-70
2022/10/18 02:16:06;;;;;;;8.20;3.92;;;15.80;99.90;;;15.05;100.00;98238.25;5031119;28;20400;-70
2022/10/18 02:18:39;;;;;;;6.18;3.42;;;15.80;99.90;;;15.17;100.00;98237.25;5031731;28;20418;-70
2022/10/18 02:21:09;;;;;;;12.82;3.40;;;15.90;99.90;;;15.11;100.00;98241.75;5031538;28;20434;-70
2022/10/18 02:23:36;;;;;;;11.05;3.78;;;15.80;99.90;;;15.07;100.00;98233.47;5031350;28;20499;-70
2022/10/18 02:26:02;;;;;;;13.25;4.57;;;15.90;99.90;;;15.06;100.00;98236.38;5030378;28;20415;-70
2022/10/18 02:28:28;;;;;;;12.27;3.40;;;15.80;99.90;;;15.11;100.00;98234.53;5031538;28;20399;-70
2022/10/18 02:31:05;;;;;;;12.30;3.63;;;15.80;99.90;;;15.16;100.00;98236.44;5031422;28;20403;-70
2022/10/18 02:33:38;;;;;;;11.43;3.30;;;15.90;99.90;;;15.06;98.78;98223.06;5030904;28;20403;-70
2022/10/18 02:36:12;;;;;;;9.02;3.45;;;15.80;99.90;;;15.04;97.53;98220.66;5031488;28;20401;-70
2022/10/18 02:38:39;;;;;;;13.25;4.10;;;15.80;99.90;;;15.03;100.00;98219.06;5031400;28;20410;-70
2022/10/18 02:41:05;;;;;;;13.60;3.87;;;15.80;99.90;;;15.01;98.12;98215.03;5031191;28;20421;-70
2022/10/18 02:43:31;;;;;;;10.95;3.92;;;15.80;99.90;;;14.99;97.37;98228.63;5030823;28;20403;-70
2022/10/18 02:45:57;;;;;;;7.60;3.78;;;15.80;99.90;;;14.99;98.08;98212.63;5031111;28;20497;-70
2022/10/18 02:48:24;;;;;;;10.27;3.83;;;15.70;99.90;;;15.02;99.76;98225.47;5031183;28;20407;-70
2022/10/18 02:50:50;;;;;;;10.40;3.77;;;15.70;99.90;;;14.96;97.41;98217.69;5031037;28;20472;-70
2022/10/18 02:53:16;;;;;;;11.13;4.17;;;15.70;99.90;;;14.93;97.07;98227.00;5030778;28;20411;-70
2022/10/18 02:55:42;;;;;;;9.33;3.67;;;15.70;99.90;;;14.97;99.72;98222.75;5030965;28;20403;-69
2022/10/18 02:58:08;;;;;;;6.82;3.40;;;15.70;99.90;;;14.94;97.98;98223.28;5030948;28;20742;-70
2022/10/18 03:00:33;;;;;;;11.88;3.83;;;15.70;99.90;;;14.91;97.65;98220.31;5030933;28;20411;-70
2022/10/18 03:02:59;;;;;;;10.10;3.90;;;15.70;99.90;;;14.93;99.70;98219.00;5030437;28;20502;-69
2022/10/18 03:05:27;;;;;;;12.15;3.67;;;15.70;99.90;;;14.91;99.95;98218.44;5030840;28;20482;-69
2022/10/18 03:07:55;;;;;;;12.80;4.00;;;15.70;99.90;;;14.94;100.00;98211.81;5030898;28;20980;-69
2022/10/18 03:10:21;;;;;;;5.75;3.58;;;15.70;99.90;;;14.99;100.00;98222.50;5030784;28;20407;-69
2022/10/18 03:12:52;;;;;;;11.38;3.45;;;15.70;99.90;;;14.97;100.00;98225.41;5030299;28;20399;-71
2022/10/18 03:15:18;;;;;;;10.10;3.47;;;15.70;99.90;;;14.99;100.00;98227.81;5030502;28;20842;-70
2022/10/18 03:17:44;;;;;;;18.73;3.78;;;15.70;99.90;;;14.95;100.00;98224.09;5030601;28;20494;-68
2022/10/18 03:20:10;;;;;;;12.98;4.03;;;15.70;99.90;;;14.94;100.00;98220.63;5030739;28;20399;-71
2022/10/18 03:22:38;;;;;;;9.87;4.00;;;15.70;99.90;;;14.92;100.00;98220.06;5030216;28;20446;-71
2022/10/18 03:25:04;;;;;;;19.23;4.18;;;15.70;99.90;;;14.92;100.00;98219.25;5030150;28;20494;-71
2022/10/18 03:27:30;;;;;;;7.82;3.50;;;15.70;99.90;;;14.91;100.00;98217.66;5029780;28;20395;-71
2022/10/18 03:29:56;;;;;;;5.13;3.30;;;15.70;99.90;;;14.91;100.00;98212.31;5030367;28;20418;-68
2022/10/18 03:32:22;;;;;;;12.52;3.88;;;15.60;99.90;;;14.89;100.00;98209.09;5030352;28;20395;-69
2022/10/18 03:34:48;;;;;;;17.13;4.53;;;15.60;99.90;;;14.85;100.00;98216.00;5029909;28;20409;-69
2022/10/18 03:37:13;;;;;;;5.00;3.30;;;15.60;99.90;;;14.82;100.00;98209.31;5030399;28;20500;-69
2022/10/18 03:39:41;;;;;;;18.98;4.13;;;15.60;99.90;;;14.78;100.00;98213.59;5030419;28;20403;-69
2022/10/18 03:42:06;;;;;;;8.48;3.60;;;15.50;99.90;;;14.74;100.00;98212.47;5030226;28;20465;-70
2022/10/18 03:44:32;;;;;;;19.70;4.27;;;15.50;99.90;;;14.68;100.00;98205.50;5029841;28;20489;-70
2022/10/18 03:46:58;;;;;;;9.20;3.80;;;15.50;99.90;;;14.63;100.00;98211.63;5030309;28;20414;-70
2022/10/18 03:49:24;;;;;;;14.37;4.27;;;15.40;99.90;;;14.59;100.00;98207.84;5028840;28;20434;-70
2022/10/18 03:51:50;;;;;;;24.58;4.30;;;15.40;99.90;;;14.55;100.00;98209.44;5030097;28;20908;-70
2022/10/18 03:54:16;;;;;;;8.80;3.65;;;15.30;99.90;;;14.54;100.00;98209.69;5026736;28;20954;-70
2022/10/18 03:56:43;;;;;;;12.52;4.28;;;15.30;99.90;;;14.49;100.00;98207.81;5028655;28;20935;-70
2022/10/18 03:59:09;;;;;;;16.65;4.60;;;15.30;99.90;;;14.44;100.00;98212.25;5029199;28;20411;-70
2022/10/18 04:01:35;;;;;;;17.90;4.30;;;15.20;99.90;;;14.47;100.00;98212.56;5029172;28;20827;-70
2022/10/18 04:04:01;;;;;;;14.50;4.78;;;15.20;99.90;;;14.44;100.00;98210.41;5029746;28;20486;-69
2022/10/18 04:06:27;;;;;;;20.83;4.30;;;15.20;99.90;;;14.42;100.00;98206.41;5029950;28;20784;-70
2022/10/18 04:08:54;;;;;;;21.33;4.82;;;15.20;99.90;;;14.43;100.00;98202.69;5030099;28;20463;-70
2022/10/18 04:11:20;;;;;;;11.10;4.47;;;15.20;99.90;;;14.42;100.00;98212.53;5029940;28;20434;-70
2022/10/18 04:13:47;;;;;;;11.20;4.22;;;15.20;99.90;;;14.44;100.00;98217.59;5029582;28;20407;-70
2022/10/18 04:16:13;;;;;;;7.78;3.72;;;15.20;99.90;;;14.51;100.00;98218.22;5029793;28;20403;-70
2022/10/18 04:18:39;;;;;;;8.00;4.50;;;15.30;99.90;;;14.53;100.00;98216.06;5029211;28;20399;-70
2022/10/18 04:21:05;;;;;;;9.20;3.90;;;15.30;99.90;;;14.56;100.00;98220.91;5028479;28;20419;-70
2022/10/18 04:23:31;;;;;;;7.57;3.90;;;15.30;99.90;;;14.60;100.00;98227.31;5027655;28;20750;-70
2022/10/18 04:25:57;;;;;;;7.03;4.10;;;15.40;99.90;;;14.62;100.00;98231.34;5028055;28;20429;-70
2022/10/18 04:28:23;;;;;;;8.53;3.97;;;15.40;99.90;;;14.61;100.00;98229.72;5028501;28;20494;-70
2022/10/18 04:30:51;;;;;;;8.07;4.07;;;15.40;99.90;;;14.67;100.00;98230.56;5028385;28;20524;-70
2022/10/18 04:33:17;;;;;;;9.32;4.28;;;15.40;99.90;;;14.66;100.00;98231.59;5028007;28;20407;-70
2022/10/18 04:35:43;;;;;;;10.30;3.90;;;15.40;99.90;;;14.63;100.00;98232.94;5028792;28;20414;-70
2022/10/18 04:38:09;;;;;;;7.05;4.05;;;15.40;99.90;;;14.62;100.00;98233.19;5029036;28;20490;-70
2022/10/18 04:40:35;;;;;;;10.77;3.92;;;15.40;99.90;;;14.60;100.00;98233.44;5032261;28;20469;-70
2022/10/18 04:43:01;;;;;;;9.75;3.90;;;15.40;99.90;;;14.66;100.00;98231.59;5032432;28;21086;-70
2022/10/18 04:45:27;;;;;;;6.22;3.80;;;15.40;99.90;;;14.81;100.00;98225.59;5032826;28;20516;-70
2022/10/18 04:47:54;;;;;;;7.65;3.70;;;15.50;99.90;;;14.93;100.00;98226.19;5032853;28;20468;-69
2022/10/18 04:50:20;;;;;;;7.70;4.40;;;15.60;99.90;;;15.11;100.00;98237.22;5033480;28;20771;-69
2022/10/18 04:52:46;;;;;;;5.40;3.30;;;15.80;99.90;;;15.44;100.00;98236.03;5032769;28;20408;-69
2022/10/18 04:55:12;;;;;;;7.03;3.50;;;16.00;99.90;;;15.37;100.00;98237.34;5033129;28;20410;-69
2022/10/18 04:57:37;;;;;;;9.40;3.80;;;16.10;99.90;;;15.35;100.00;98242.94;5033220;28;20924;-70
2022/10/18 05:00:05;;;;;;;5.00;3.50;;;16.10;99.90;;;15.28;100.00;98237.03;5032729;28;20402;-70
2022/10/18 05:02:31;;;;;;;7.80;3.60;;;16.00;99.90;;;15.24;100.00;98237.81;5030075;28;20423;-69
2022/10/18 05:04:58;;;;;;;10.32;3.80;;;16.00;99.90;;;15.25;100.00;98240.25;5032097;28;20911;-69
2022/10/18 05:07:24;;;;;;;4.38;2.90;;;16.00;99.90;;;15.25;100.00;98239.44;5032835;28;20476;-69
2022/10/18 05:09:50;;;;;;;10.93;3.92;;;15.90;99.90;;;15.17;100.00;98250.59;5032484;28;20407;-69
2022/10/18 05:12:16;;;;;;;13.50;3.83;;;15.90;99.90;;;15.16;100.00;98246.31;5032665;28;20530;-70
2022/10/18 05:14:42;;;;;;;6.25;3.63;;;15.90;99.90;;;15.06;100.00;98245.19;5032381;28;20403;-69
2022/10/18 05:17:08;;;;;;;21.60;4.17;;;15.80;99.90;;;14.97;100.00;98249.41;5032890;28;20418;-69
2022/10/18 05:19:34;;;;;;;16.27;4.20;;;15.70;99.90;;;14.91;100.00;98247.78;5032874;28;20403;-69
2022/10/18 05:22:01;;;;;;;16.67;4.55;;;15.70;99.90;;;14.86;100.00;98246.94;5052270;22;20529;-71
2022/10/18 05:24:27;;;;;;;8.70;4.10;;;15.60;99.90;;;14.83;100.00;98239.44;5051682;28;20430;-72
2022/10/18 05:26:53;;;;;;;12.02;3.92;;;15.60;99.90;;;14.77;100.00;98237.81;5052793;28;20822;-71
2022/10/18 05:29:19;;;;;;;8.70;4.03;;;15.50;99.90;;;14.80;100.00;98245.31;5066794;28;20485;-72
2022/10/18 05:31:45;;;;;;;5.43;3.67;;;15.50;99.90;;;14.83;100.00;98240.25;5047666;28;20398;-71
2022/10/18 05:34:11;;;;;;;17.10;4.60;;;15.60;99.90;;;14.78;100.00;98234.91;5032123;28;20498;-71
2022/10/18 05:36:36;;;;;;;15.40;4.20;;;15.50;99.90;;;14.75;100.00;98243.41;5032236;28;20407;-71
2022/10/18 05:39:04;;;;;;;10.75;4.72;;;15.50;99.90;;;14.71;100.00;98245.00;5032500;28;20492;-72
2022/10/18 05:41:31;;;;;;;9.77;4.38;;;15.40;99.90;;;14.68;100.00;98242.81;5032209;28;20423;-72
2022/10/18 05:43:57;;;;;;;10.65;3.92;;;15.40;99.90;;;14.62;100.00;98243.84;5031945;28;20407;-72
2022/10/18 05:46:23;;;;;;;17.43;4.70;;;15.40;99.90;;;14.55;100.00;98241.41;5032311;28;20410;-72
2022/10/18 05:48:50;;;;;;;11.68;4.60;;;15.30;99.90;;;14.52;100.00;98241.09;5032318;28;20407;-72
2022/10/18 05:51:16;;;;;;;11.55;4.60;;;15.30;99.90;;;14.48;100.00;98237.34;5031268;28;20440;-71
2022/10/18 05:53:42;;;;;;;12.20;4.13;;;15.30;99.90;;;14.51;100.00;98244.84;5031818;28;20400;-72
2022/10/18 05:56:13;;;;;;;14.80;5.03;;;15.30;99.90;;;14.50;100.00;98238.72;5032008;28;20940;-72
2022/10/18 05:58:40;;;;;;;9.15;4.30;;;15.30;99.90;;;14.49;100.00;98233.63;5030760;28;20462;-71
2022/10/18 06:01:08;;;;;;;10.93;4.15;;;15.20;99.90;;;14.55;100.00;98245.94;5031455;28;20423;-72
2022/10/18 06:03:34;;;;;;;11.82;4.70;;;15.30;99.90;;;14.46;100.00;98242.13;5030739;28;20399;-71
2022/10/18 06:06:00;;;;;;;15.23;4.82;;;15.20;99.90;;;14.44;100.00;98247.69;5030311;28;20411;-72
2022/10/18 06:08:26;;;;;;;12.60;5.00;;;15.20;99.90;;;14.50;100.00;98241.38;5031711;28;20892;-72
2022/10/18 06:10:52;;;;;;;12.85;4.45;;;15.20;99.90;;;14.47;100.00;98249.06;5031962;28;20403;-71
2022/10/18 06:13:20;;;;;;;10.60;4.50;;;15.20;99.90;;;14.44;100.00;98244.22;5031226;28;20464;-72
2022/10/18 06:15:45;;;;;;;12.90;3.92;;;15.20;99.90;;;14.45;100.00;98251.97;5031677;28;20706;-72
2022/10/18 06:18:11;;;;;;;8.52;4.10;;;15.20;99.90;;;14.51;100.00;98244.84;5031419;28;20418;-72
2022/10/18 06:20:37;;;;;;;10.35;4.45;;;15.30;99.90;;;14.50;100.00;98249.38;5030440;28;20438;-71
2022/10/18 06:23:03;;;;;;;7.65;4.20;;;15.30;99.90;;;14.58;100.00;98246.25;5030772;28;20457;-72
2022/10/18 06:25:29;;;;;;;12.45;4.43;;;15.30;99.90;;;14.62;100.00;98239.31;5030248;28;20417;-72
2022/10/18 06:27:55;;;;;;;9.00;4.07;;;15.40;99.90;;;14.71;100.00;98242.31;5031431;28;20469;-71
2022/10/18 06:30:22;;;;;;;7.03;4.10;;;15.40;99.90;;;14.83;100.00;98239.44;5030237;28;20434;-71
2022/10/18 06:32:48;;;;;;;10.90;4.32;;;15.50;99.90;;;14.94;100.00;98254.47;5030739;28;20445;-71
2022/10/18 06:35:14;;;;;;;9.82;4.28;;;15.60;99.90;;;14.99;100.00;98252.63;5031268;28;20797;-72
2022/10/18 06:37:40;;;;;;;9.75;4.10;;;15.70;99.90;;;15.03;100.00;98267.06;5030796;28;20407;-72
2022/10/18 06:40:07;;;;;;;13.38;4.40;;;15.80;99.90;;;15.15;100.00;98252.72;5031392;28;20430;-72
2022/10/18 06:42:33;;;;;;;11.43;4.07;;;15.90;99.90;;;15.19;100.00;98256.44;5030766;28;20932;-72
2022/10/18 06:44:59;;;;;;;14.55;4.50;;;16.00;99.90;;;15.28;100.00;98255.69;5030797;28;20439;-71
2022/10/18 06:47:26;;;;;;;15.50;4.22;;;16.00;99.90;;;15.35;100.00;98264.28;5031240;28;20403;-72
2022/10/18 06:49:52;;;;;;;13.40;4.05;;;16.10;99.90;;;15.35;100.00;98258.13;5030908;28;20453;-72
2022/10/18 06:52:21;;;;;;;8.50;3.90;;;16.10;99.90;;;15.48;100.00;98258.47;5031068;28;20403;-72
2022/10/18 06:54:47;;;;;;;7.03;3.67;;;16.20;99.90;;;15.58;100.00;98264.94;5030446;28;20469;-72
2022/10/18 06:57:13;;;;;;;9.00;3.70;;;16.30;99.90;;;15.83;100.00;98262.34;5030936;28;20498;-72
2022/10/18 06:59:38;;;;;;;8.20;3.77;;;16.50;99.90;;;15.80;100.00;98271.69;5030984;28;20466;-72
2022/10/18 07:02:04;;;;;;;9.70;3.53;;;16.50;99.90;;;15.83;100.00;98279.16;5030605;28;20461;-72
2022/10/18 07:04:32;;;;;;;8.80;3.60;;;16.50;99.90;;;15.78;100.00;98265.81;5030396;28;20494;-72
2022/10/18 07:06:58;;;;;;;7.35;3.95;;;16.50;99.90;;;15.75;100.00;98266.34;5030924;28;20403;-71
2022/10/18 07:09:24;;;;;;;12.23;3.90;;;16.40;99.90;;;15.70;100.00;98266.31;5030870;28;20414;-72
2022/10/18 07:11:51;;;;;;;12.90;3.87;;;16.40;99.90;;;15.69;100.00;98266.59;5030626;28;20478;-72
2022/10/18 07:14:17;;;;;;;12.45;3.90;;;16.40;99.90;;;15.68;100.00;98272.97;5029011;28;20750;-72
2022/10/18 07:16:43;;;;;;;8.55;3.50;;;16.40;99.90;;;15.67;100.00;98274.03;5030334;28;20465;-71
2022/10/18 07:19:09;;;;;;;9.82;3.88;;;16.40;99.90;;;15.68;100.00;98284.47;5030575;28;21037;-72
2022/10/18 07:21:36;;;;;;;10.13;3.63;;;16.40;99.90;;;15.87;100.00;98282.91;5030030;28;20596;-71
2022/10/18 07:24:02;;;;;;;6.65;3.78;;;16.50;99.90;;;15.97;100.00;98276.81;5029905;28;20474;-71
2022/10/18 07:26:31;;;;;;;8.05;3.80;;;16.60;99.90;;;15.94;100.00;98289.88;5026548;28;20419;-72
2022/10/18 07:29:00;;;;;;;18.33;4.67;;;16.60;99.90;;;16.05;100.00;98284.28;5030080;28;20429;-73
2022/10/18 07:31:27;;;;;;;4.53;3.50;;;16.70;99.90;;;16.07;100.00;98286.72;5030083;28;20537;-72
2022/10/18 07:33:53;;;;;;;10.27;3.80;;;16.70;99.90;;;15.97;100.00;98292.00;5029754;28;20797;-72
2022/10/18 07:36:20;;;;;;;7.82;4.00;;;16.60;99.90;;;16.02;100.00;98276.81;5029756;28;20468;-72
2022/10/18 07:38:48;;;;;;;5.95;3.83;;;16.70;99.90;;;16.20;100.00;98280.84;5029520;28;20483;-72
2022/10/18 07:41:14;;;;;;;7.55;4.20;;;16.80;99.90;;;16.10;100.00;98278.94;5029423;28;20410;-71
2022/10/18 07:43:46;;;;;;;11.60;4.70;;;16.80;99.90;;;16.03;100.00;98278.41;5029463;28;20403;-71
2022/10/18 07:46:13;;;;;;;7.88;4.18;;;16.80;99.90;;;16.15;100.00;98280.84;5029711;28;20402;-71
2022/10/18 07:48:39;;;;;;;10.05;3.80;;;16.80;99.90;;;16.10;99.93;98275.47;5029638;28;20403;-72
2022/10/18 07:51:06;;;;;;;6.30;4.00;;;16.80;99.90;;;16.31;100.00;98276.34;5029972;28;20410;-72
2022/10/18 07:53:33;;;;;;;14.27;4.22;;;16.90;99.90;;;16.26;99.55;98288.59;5029328;28;20458;-71
2022/10/18 07:56:02;;;;;;;8.48;3.75;;;16.90;99.90;;;16.42;100.00;98293.97;5029508;28;20426;-71
2022/10/18 07:58:29;;;;;;;11.82;4.25;;;17.00;99.90;;;16.35;98.22;98283.53;5029569;28;20838;-73
2022/10/18 08:00:56;;;;;;;11.00;4.10;;;17.10;99.90;;;16.34;98.34;98283.81;5029642;28;20406;-72
2022/10/18 08:03:22;;;;;;;9.00;3.55;;;17.00;99.90;;;16.50;100.00;98286.22;5029124;28;20421;-72
2022/10/18 08:05:52;;;;;;;7.80;3.67;;;17.10;99.90;;;16.57;98.08;98288.63;5029543;28;20395;-72
2022/10/18 08:08:19;;;;;;;11.25;3.80;;;17.20;99.90;;;16.56;99.68;98295.03;5028239;28;20815;-72
2022/10/18 08:10:45;;;;;;;10.68;3.88;;;17.30;99.90;;;16.57;96.90;98300.13;5030267;28;20477;-69
2022/10/18 08:13:12;;;;;;;8.33;3.90;;;17.30;99.90;;;16.75;99.51;98290.81;5031113;28;20473;-71
2022/10/18 08:15:38;;;;;;;10.80;3.60;;;17.40;99.90;;;16.80;99.42;98292.66;5038427;28;20424;-70
2022/10/18 08:18:04;;;;;;;11.98;4.00;;;17.50;99.90;;;16.87;99.29;98298.53;5033410;28;20399;-71
2022/10/18 08:20:32;;;;;;;6.85;3.95;;;17.50;99.90;;;16.85;98.59;98293.44;5031186;28;20500;-71
2022/10/18 08:22:58;;;;;;;10.82;3.95;;;17.50;99.90;;;17.04;99.46;98301.72;5031363;28;20459;-70
2022/10/18 08:25:24;;;;;;;10.38;4.00;;;17.60;99.90;;;16.80;95.37;98304.16;5031324;28;20896;-71
2022/10/18 08:27:50;;;;;;;12.90;4.10;;;17.50;99.90;;;16.67;94.81;98301.22;5031901;28;20437;-72
2022/10/18 08:30:17;;;;;;;10.83;3.47;;;17.40;99.90;;;16.80;97.89;98306.84;5033206;28;20738;-71
2022/10/18 08:32:43;;;;;;;5.18;3.70;;;17.40;99.90;;;16.87;100.00;98311.91;5022498;28;20422;-70
2022/10/18 08:35:09;;;;;;;8.32;4.05;;;17.50;99.90;;;16.84;99.92;98315.91;5029040;28;20454;-70
2022/10/18 08:37:34;;;;;;;6.70;3.90;;;17.50;99.90;;;17.11;100.00;98317.50;5030913;28;20422;-70
2022/10/18 08:40:00;;;;;;;8.25;3.83;;;17.60;99.90;;;16.98;100.00;98316.19;5032595;28;20442;-70
2022/10/18 08:42:48;;;;;;;8.93;3.80;;;17.70;99.90;;;16.97;97.79;98312.72;5032386;28;20773;-70
2022/10/18 08:45:15;;;;;;;10.68;4.10;;;17.70;99.90;;;16.96;95.20;98302.28;5032137;28;20407;-70
2022/10/18 08:47:45;;;;;;;6.90;3.50;;;17.60;99.90;;;16.97;97.76;98310.03;5032860;28;20491;-70
2022/10/18 08:50:16;;;;;;;8.02;3.80;;;17.60;99.90;;;16.97;98.51;98312.72;5032942;28;20435;-70
2022/10/18 08:52:49;;;;;;;7.72;4.05;;;17.60;99.90;;;17.00;100.00;98312.16;5032513;28;20489;-71
2022/10/18 08:55:23;;;;;;;8.43;3.50;;;17.70;99.90;;;17.16;100.00;98318.28;5028576;28;20407;-70
2022/10/18 08:57:50;;;;;;;11.37;3.77;;;17.70;99.90;;;17.36;100.00;98320.13;5032841;28;20443;-69
2022/10/18 09:00:26;;;;;;;11.73;4.13;;;17.90;99.90;;;17.18;96.92;98320.69;5029658;28;20827;-71
2022/10/18 09:03:16;;;;;;;8.63;3.50;;;17.90;99.90;;;17.31;99.02;98318.25;5031162;28;20413;-70
2022/10/18 09:05:49;;;;;;;7.18;3.35;;;18.00;99.90;;;17.70;99.20;98317.63;5029190;28;20407;-69
2022/10/18 09:08:46;;;;;;;5.78;3.33;;;18.20;99.90;;;17.84;99.34;98318.63;5032320;28;20403;-69
2022/10/18 09:11:30;;;;;;;10.02;3.50;;;18.40;99.90;;;18.28;94.05;98317.84;5042006;28;20414;-69
2022/10/18 09:14:41;;;;;;;8.63;3.30;;;18.80;99.90;;;18.14;96.16;98318.47;5032427;28;20395;-71
2022/10/18 09:17:16;;;;;;;5.32;2.80;;;18.80;99.90;;;18.14;96.59;98320.38;5018251;28;20512;-71
2022/10/18 09:20:14;;;;;;;11.07;3.53;;;18.70;99.90;;;18.34;96.55;98322.13;5032894;28;20877;-71
2022/10/18 09:22:51;;;;;;;8.63;3.45;;;18.90;99.90;;;18.34;94.92;98324.81;5028934;28;20427;-71
2022/10/18 09:25:21;;;;;;;9.80;3.50;;;18.90;99.90;;;18.40;98.67;98318.34;5031757;28;20415;-71
2022/10/18 09:27:55;;;;;;;6.28;3.13;;;19.00;99.90;;;18.54;99.61;98320.09;5032524;28;20867;-71
2022/10/18 09:30:40;;;;;;;5.70;3.10;;;19.10;99.90;;;18.71;97.00;98324.31;5032805;28;20399;-71
2022/10/18 09:33:22;;;;;;;9.07;3.03;;;19.30;99.90;;;18.95;98.53;98323.28;5032266;28;20876;-71
2022/10/18 09:35:55;;;;;;;9.57;3.70;;;19.40;99.90;;;18.96;95.88;98321.41;5031711;28;20395;-72
2022/10/18 09:38:27;;;;;;;10.70;3.70;;;19.50;99.90;;;18.88;96.43;98324.69;5020790;28;20416;-71
2022/10/18 09:40:57;;;;;;;9.80;3.80;;;19.50;99.90;;;18.78;97.19;98336.31;5032406;28;20403;-69
2022/10/18 09:43:37;;;;;;;9.70;3.83;;;19.40;99.90;;;18.71;99.47;98335.03;5031818;28;20414;-69
2022/10/18 09:46:05;;;;;;;6.97;3.50;;;19.30;99.90;;;18.64;100.00;98337.25;5031082;28;20881;-70
2022/10/18 09:48:40;;;;;;;8.50;3.72;;;19.20;99.90;;;18.70;100.00;98344.97;5032340;28;20810;-69
2022/10/18 09:51:13;;;;;;;7.72;3.80;;;19.20;99.90;;;18.83;100.00;98349.69;5032413;28;20835;-70
2022/10/18 09:53:52;;;;;;;10.38;3.92;;;19.40;99.90;;;18.99;100.00;98342.31;5031821;28;20406;-70
2022/10/18 09:56:25;;;;;;;6.65;2.78;;;19.50;99.90;;;18.99;100.00;98349.56;5032183;28;20434;-70
2022/10/18 09:58:51;;;;;;;10.32;3.35;;;19.50;99.90;;;18.99;100.00;98346.88;5030905;28;20429;-70
2022/10/18 10:01:21;;;;;;;12.60;4.05;;;19.50;99.90;;;18.93;100.00;98346.94;5031889;28;20948;-71
2022/10/18 10:03:47;;;;;;;6.85;3.60;;;19.50;99.90;;;18.97;100.00;98349.03;5031732;28;20865;-71
2022/10/18 10:06:24;;;;;;;7.57;3.72;;;19.50;99.90;;;18.86;100.00;98349.13;5031877;28;20464;-71
2022/10/18 10:08:58;;;;;;;7.57;3.30;;;19.40;99.90;;;18.81;100.00;98340.31;5031985;28;20414;-70
2022/10/18 10:11:31;;;;;;;4.97;3.33;;;19.40;99.90;;;18.70;100.00;98338.81;5030990;28;20396;-70
2022/10/18 10:14:11;;;;;;;6.57;3.53;;;19.30;99.90;;;18.62;100.00;98345.56;5030369;28;20395;-71
2022/10/18 10:16:49;;;;;;;4.15;3.13;;;19.20;99.90;;;18.53;100.00;98345.31;5029853;28;20406;-70
2022/10/18 10:19:23;;;;;;;5.20;3.40;;;19.20;99.90;;;18.57;100.00;98339.44;5030906;28;20395;-70